Time;durP1;ratioP1;P1;durP2;ratioP2;P2;SDS_P1;SDS_P2;PMS_P1;PMS_P2;Temp;Humidity;BMP_temperature;BMP_pressure;BME280_temperature;BME280_humidity;BME280_pressure;Samples;Min_cycle;Max_cycle;Signal;HPM_P1;HPM_P2
2023/05/21 00:00:14;;;;;;;13.30;11.90;;;;;;;15.29;86.25;98357.09;107655;1275;23907;-84
2023/05/21 00:03:02;;;;;;;15.20;10.80;;;;;;;15.36;86.31;98353.67;109749;1275;22537;-83
2023/05/21 00:05:31;;;;;;;13.50;10.70;;;;;;;15.41;86.66;98348.63;109675;1275;22532;-83
2023/05/21 00:07:59;;;;;;;13.50;11.30;;;;;;;15.47;87.78;98353.88;107651;1275;24235;-84
2023/05/21 00:10:27;;;;;;;13.10;10.80;;;;;;;15.51;87.56;98349.69;107153;1275;26717;-85
2023/05/21 00:12:55;;;;;;;14.30;11.90;;;;;;;15.52;86.99;98346.80;106980;1259;22630;-86
2023/05/21 00:15:23;;;;;;;16.20;10.80;;;;;;;15.52;86.94;98345.86;106955;1275;24361;-85
2023/05/21 00:17:51;;;;;;;12.60;10.80;;;;;;;15.53;87.35;98344.67;106960;1275;22524;-85
2023/05/21 00:20:19;;;;;;;12.20;10.90;;;;;;;15.53;86.92;98343.52;106922;1275;25100;-84
2023/05/21 00:22:47;;;;;;;13.10;10.80;;;;;;;15.55;87.22;98343.67;107023;1275;23912;-84
2023/05/21 00:25:15;;;;;;;12.30;10.80;;;;;;;15.56;86.97;98343.59;106848;1275;26746;-84
2023/05/21 00:27:44;;;;;;;12.60;11.30;;;;;;;15.59;87.11;98340.29;106950;1275;25449;-84
2023/05/21 00:30:12;;;;;;;13.60;10.50;;;;;;;15.61;87.01;98340.22;106914;1275;22540;-85
2023/05/21 00:32:40;;;;;;;12.50;11.00;;;;;;;15.62;87.17;98340.74;106961;1275;25408;-88
2023/05/21 00:35:08;;;;;;;19.70;10.90;;;;;;;15.61;87.08;98341.08;106963;1275;24193;-84
2023/05/21 00:37:36;;;;;;;13.20;10.70;;;;;;;15.61;87.05;98340.54;106734;1253;22519;-84
2023/05/21 00:40:07;;;;;;;11.60;10.50;;;;;;;15.63;87.07;98341.02;106961;1275;22972;-84
2023/05/21 00:42:39;;;;;;;13.70;10.40;;;;;;;15.66;87.09;98340.50;106967;1275;25259;-84
2023/05/21 00:45:08;;;;;;;12.50;10.40;;;;;;;15.69;87.01;98341.58;106970;1275;22640;-84
2023/05/21 00:47:36;;;;;;;12.70;10.70;;;;;;;15.70;86.99;98338.83;106905;1275;22581;-83
2023/05/21 00:50:05;;;;;;;12.40;10.50;;;;;;;15.70;87.09;98336.27;107019;1275;24274;-83
2023/05/21 00:52:40;;;;;;;12.40;10.00;;;;;;;15.70;87.06;98335.25;107018;1275;22580;-83
2023/05/21 00:55:09;;;;;;;11.60;10.30;;;;;;;15.71;87.14;98332.05;107033;1275;22783;-83
2023/05/21 00:57:39;;;;;;;12.70;10.20;;;;;;;15.73;87.33;98331.13;106972;1275;22665;-83
2023/05/21 01:00:07;;;;;;;12.70;10.20;;;;;;;15.74;87.24;98330.77;106675;1275;26850;-83
2023/05/21 01:02:36;;;;;;;14.90;10.10;;;;;;;15.76;87.25;98327.29;107019;1275;22543;-83
2023/05/21 01:05:05;;;;;;;12.40;10.30;;;;;;;15.76;87.18;98327.31;107048;1275;25424;-83
2023/05/21 01:07:37;;;;;;;11.10;9.40;;;;;;;15.76;87.17;98326.40;106981;1275;22571;-83
2023/05/21 01:10:08;;;;;;;13.60;10.30;;;;;;;15.77;87.14;98323.96;106997;1275;25262;-83
2023/05/21 01:12:39;;;;;;;15.80;9.60;;;;;;;15.79;87.09;98318.84;106996;1275;24235;-83
2023/05/21 01:15:07;;;;;;;11.00;9.00;;;;;;;15.81;87.04;98321.17;107012;1275;22630;-83
2023/05/21 01:17:37;;;;;;;9.80;8.90;;;;;;;15.82;87.21;98322.38;106810;1275;22577;-83
2023/05/21 01:20:09;;;;;;;11.30;10.20;;;;;;;15.82;87.14;98315.38;106980;1275;24358;-83
2023/05/21 01:22:42;;;;;;;11.00;9.90;;;;;;;15.81;87.02;98316.20;106863;1275;25262;-83
2023/05/21 01:25:10;;;;;;;13.10;9.60;;;;;;;15.80;87.03;98316.86;106853;1275;23893;-84
2023/05/21 01:27:39;;;;;;;13.70;8.50;;;;;;;15.80;86.93;98316.77;106992;1275;22576;-83
2023/05/21 01:30:07;;;;;;;10.70;9.00;;;;;;;15.82;87.31;98312.95;106694;1275;24373;-83
2023/05/21 01:32:47;;;;;;;11.00;9.80;;;;;;;15.81;87.02;98312.23;106753;1275;24226;-83
2023/05/21 01:35:25;;;;;;;10.90;9.80;;;;;;;15.79;86.97;98308.20;106997;1275;22624;-82
2023/05/21 01:38:12;;;;;;;15.10;10.50;;;;;;;15.77;86.84;98306.80;106961;1275;22499;-83
2023/05/21 01:40:54;;;;;;;11.20;8.60;;;;;;;15.76;86.76;98302.39;106937;1275;24457;-83
2023/05/21 01:43:23;;;;;;;10.50;8.30;;;;;;;15.77;86.72;98298.77;107023;1275;25406;-84
2023/05/21 01:45:54;;;;;;;15.40;9.40;;;;;;;15.77;86.66;98298.56;106951;1275;22520;-84
2023/05/21 01:48:26;;;;;;;9.80;8.50;;;;;;;15.78;86.68;98295.32;106927;1275;22599;-86
2023/05/21 01:51:00;;;;;;;11.60;8.80;;;;;;;15.76;86.56;98295.10;106984;1275;24259;-84
2023/05/21 01:53:28;;;;;;;10.30;8.80;;;;;;;15.75;86.46;98293.80;106924;1275;22517;-83
2023/05/21 01:55:58;;;;;;;11.80;8.70;;;;;;;15.74;86.33;98294.45;106839;1275;25059;-84
2023/05/21 01:58:26;;;;;;;11.30;9.00;;;;;;;15.74;86.18;98294.48;107007;1275;25277;-84
2023/05/21 02:00:55;;;;;;;9.40;8.30;;;;;;;15.74;86.06;98294.93;106921;1275;22537;-84
2023/05/21 02:03:26;;;;;;;10.70;9.00;;;;;;;15.78;85.96;98295.86;106926;1272;24489;-84
2023/05/21 02:05:55;;;;;;;10.70;8.70;;;;;;;15.78;85.78;98294.87;106994;1275;23013;-84
2023/05/21 02:08:24;;;;;;;11.30;8.70;;;;;;;15.76;85.70;98295.25;107023;1275;24367;-84
2023/05/21 02:10:52;;;;;;;9.80;8.40;;;;;;;15.75;85.49;98294.27;107083;1275;22565;-84
2023/05/21 02:13:21;;;;;;;10.80;8.30;;;;;;;15.73;85.28;98294.66;107051;1275;23105;-84
2023/05/21 02:15:53;;;;;;;11.90;7.70;;;;;;;15.73;85.27;98288.81;106956;1275;22534;-84
2023/05/21 02:18:22;;;;;;;10.50;7.40;;;;;;;15.74;85.19;98292.68;106948;1275;23235;-84
2023/05/21 02:20:50;;;;;;;10.20;7.80;;;;;;;15.76;85.18;98289.73;106756;1275;22517;-84
2023/05/21 02:23:18;;;;;;;10.60;8.40;;;;;;;15.77;85.03;98283.83;106689;1275;22993;-84
2023/05/21 02:25:46;;;;;;;8.90;7.80;;;;;;;15.76;84.98;98284.23;106940;1275;22522;-83
2023/05/21 02:28:14;;;;;;;10.10;8.50;;;;;;;15.74;84.54;98279.09;106973;1275;22591;-85
2023/05/21 02:30:42;;;;;;;13.30;7.90;;;;;;;15.71;84.55;98275.55;106858;1272;22571;-85
2023/05/21 02:33:13;;;;;;;12.70;8.60;;;;;;;15.70;84.51;98275.26;106949;1275;24180;-85
2023/05/21 02:35:42;;;;;;;9.50;8.40;;;;;;;15.69;84.36;98270.11;106971;1275;22870;-85
2023/05/21 02:38:12;;;;;;;10.40;8.00;;;;;;;15.70;84.32;98269.13;106984;1275;25530;-84
2023/05/21 02:40:40;;;;;;;9.00;8.00;;;;;;;15.68;84.14;98264.39;106951;1275;24176;-88
2023/05/21 02:43:08;;;;;;;13.20;8.40;;;;;;;15.65;84.21;98268.37;107015;1275;25282;-85
2023/05/21 02:45:37;;;;;;;13.30;8.10;;;;;;;15.62;84.05;98268.86;106775;1275;22687;-83
2023/05/21 02:48:05;;;;;;;13.20;8.50;;;;;;;15.59;83.95;98272.06;106741;1275;22569;-83
2023/05/21 02:50:36;;;;;;;13.50;8.20;;;;;;;15.55;83.90;98267.40;106963;1275;22517;-83
2023/05/21 02:53:05;;;;;;;11.50;8.10;;;;;;;15.54;83.79;98267.02;106716;1275;24342;-84
2023/05/21 02:55:33;;;;;;;10.00;8.20;;;;;;;15.53;83.75;98263.63;106725;1275;25281;-84
2023/05/21 02:58:02;;;;;;;8.80;7.90;;;;;;;15.50;83.70;98259.77;107007;1275;22630;-85
2023/05/21 03:00:30;;;;;;;12.50;8.40;;;;;;;15.45;83.64;98261.28;106964;1275;24217;-84
2023/05/21 03:03:00;;;;;;;10.90;8.60;;;;;;;15.40;83.29;98265.35;106979;1275;24429;-83
2023/05/21 03:05:28;;;;;;;10.30;8.10;;;;;;;15.35;83.43;98264.11;106905;1275;22675;-84
2023/05/21 03:07:56;;;;;;;9.60;8.60;;;;;;;15.30;83.40;98265.23;106985;1275;25630;-84
2023/05/21 03:10:24;;;;;;;11.10;8.30;;;;;;;15.27;83.40;98263.70;106768;1275;22769;-82
2023/05/21 03:12:53;;;;;;;11.60;7.90;;;;;;;15.26;83.37;98263.63;107009;1275;23272;-85
2023/05/21 03:15:24;;;;;;;13.20;8.80;;;;;;;15.22;83.56;98259.83;107186;1275;24255;-84
2023/05/21 03:17:52;;;;;;;12.40;8.20;;;;;;;15.19;83.46;98256.73;107213;1275;22531;-85
2023/05/21 03:20:23;;;;;;;10.60;8.40;;;;;;;15.15;83.37;98260.06;107853;1273;22551;-84
2023/05/21 03:22:51;;;;;;;10.40;9.40;;;;;;;15.10;83.41;98262.98;107156;1275;22599;-85
2023/05/21 03:25:20;;;;;;;10.70;7.70;;;;;;;15.06;83.32;98262.05;106896;1275;22526;-87
2023/05/21 03:27:48;;;;;;;16.40;8.40;;;;;;;15.03;83.36;98268.31;106951;1275;23148;-87
2023/05/21 03:30:37;;;;;;;12.00;8.50;;;;;;;15.00;83.43;98270.40;106966;1275;22533;-84
2023/05/21 03:33:31;;;;;;;9.90;8.90;;;;;;;14.96;83.48;98266.66;106910;1275;22525;-84
2023/05/21 03:36:00;;;;;;;11.60;8.80;;;;;;;14.93;83.45;98265.58;106983;1275;22552;-84
2023/05/21 03:38:30;;;;;;;10.70;8.60;;;;;;;14.89;83.34;98270.08;106935;1275;23158;-86
2023/05/21 03:40:58;;;;;;;13.10;8.80;;;;;;;14.87;83.44;98264.71;106697;1276;22644;-85
2023/05/21 03:43:26;;;;;;;10.30;7.20;;;;;;;14.87;83.40;98263.67;106653;1276;25266;-84
2023/05/21 03:45:55;;;;;;;14.30;8.40;;;;;;;14.88;83.47;98264.49;106881;1253;22621;-84
2023/05/21 03:48:52;;;;;;;11.90;8.20;;;;;;;14.86;83.42;98262.70;106615;1276;25268;-84
2023/05/21 03:51:21;;;;;;;12.10;9.10;;;;;;;14.84;83.51;98263.90;106763;1276;25483;-84
2023/05/21 03:53:50;;;;;;;10.90;8.70;;;;;;;14.80;83.56;98268.14;106664;1276;22756;-84
2023/05/21 03:56:18;;;;;;;11.50;8.20;;;;;;;14.77;83.38;98267.54;106713;1276;22539;-84
2023/05/21 03:58:47;;;;;;;9.40;8.30;;;;;;;14.74;83.39;98269.06;106839;1276;22636;-85
2023/05/21 04:01:16;;;;;;;10.90;8.00;;;;;;;14.76;83.46;98267.48;106621;1276;22535;-84
2023/05/21 04:03:45;;;;;;;10.60;7.70;;;;;;;14.79;83.58;98269.13;106849;1276;22521;-84
2023/05/21 04:06:14;;;;;;;8.90;8.00;;;;;;;14.83;83.66;98265.72;106895;1276;22534;-84
2023/05/21 04:08:43;;;;;;;12.50;7.80;;;;;;;14.84;83.60;98266.17;106743;1276;22561;-84
2023/05/21 04:11:11;;;;;;;9.80;8.10;;;;;;;14.83;83.51;98266.30;106618;1276;25220;-84
2023/05/21 04:13:39;;;;;;;15.00;7.80;;;;;;;14.85;83.26;98262.94;106864;1276;22560;-85
2023/05/21 04:16:13;;;;;;;10.60;7.50;;;;;;;14.88;83.36;98261.02;106850;1276;25602;-85
2023/05/21 04:18:41;;;;;;;10.00;7.60;;;;;;;14.93;83.32;98264.04;106774;1276;22946;-80
2023/05/21 04:21:12;;;;;;;12.20;8.00;;;;;;;15.01;83.43;98264.85;106907;1276;22518;-84
2023/05/21 04:23:41;;;;;;;10.60;7.70;;;;;;;15.07;83.14;98261.39;106733;1267;22633;-84
2023/05/21 04:26:35;;;;;;;11.50;8.10;;;;;;;15.11;83.23;98266.86;106855;1276;22598;-84
2023/05/21 04:29:03;;;;;;;9.40;7.50;;;;;;;15.17;83.12;98271.52;106684;1276;22808;-84
2023/05/21 04:31:32;;;;;;;11.10;8.40;;;;;;;15.21;82.81;98273.88;106880;1276;22539;-84
2023/05/21 04:34:00;;;;;;;7.40;6.50;;;;;;;15.26;82.82;98274.95;106921;1276;22654;-84
2023/05/21 04:36:29;;;;;;;12.00;7.40;;;;;;;15.33;82.58;98268.30;106793;1276;22524;-87
2023/05/21 04:38:57;;;;;;;9.20;7.20;;;;;;;15.41;82.46;98270.20;106930;1275;24398;-84
2023/05/21 04:41:25;;;;;;;8.20;7.00;;;;;;;15.46;81.82;98268.25;106911;1275;24180;-84
2023/05/21 04:43:53;;;;;;;9.20;7.30;;;;;;;15.52;81.87;98271.98;106938;1275;23154;-83
2023/05/21 04:46:23;;;;;;;13.10;6.80;;;;;;;15.57;81.40;98273.92;106898;1275;22730;-84
2023/05/21 04:48:56;;;;;;;9.50;7.00;;;;;;;15.61;81.19;98274.87;106877;1275;23892;-83
2023/05/21 04:51:25;;;;;;;8.30;7.50;;;;;;;15.66;81.19;98274.87;106736;1275;22520;-84
2023/05/21 04:53:53;;;;;;;11.00;6.50;;;;;;;15.72;80.82;98275.67;106686;1275;23297;-84
2023/05/21 04:56:21;;;;;;;10.50;6.90;;;;;;;15.80;80.91;98272.14;106887;1275;22631;-85
2023/05/21 04:58:49;;;;;;;10.00;6.90;;;;;;;15.90;81.02;98273.08;106719;1275;24371;-83
2023/05/21 05:01:17;;;;;;;11.10;7.20;;;;;;;15.99;80.80;98276.57;106986;1274;24230;-86
2023/05/21 05:03:46;;;;;;;9.90;6.60;;;;;;;16.04;80.63;98277.56;107107;1275;25482;-83
2023/05/21 05:06:14;;;;;;;7.80;6.70;;;;;;;16.12;80.65;98279.05;107523;1275;22528;-87
2023/05/21 05:08:42;;;;;;;7.60;6.00;;;;;;;16.18;80.33;98275.88;107210;1275;22630;-85
2023/05/21 05:11:10;;;;;;;10.20;7.00;;;;;;;16.24;79.88;98277.14;107098;1275;24228;-86
2023/05/21 05:13:42;;;;;;;10.40;6.80;;;;;;;16.28;79.88;98273.66;106944;1275;22805;-86
2023/05/21 05:16:11;;;;;;;9.00;7.30;;;;;;;16.35;79.37;98273.31;106955;1275;25408;-87
2023/05/21 05:18:41;;;;;;;10.90;7.00;;;;;;;16.40;79.05;98274.64;107005;1275;24250;-86
2023/05/21 05:21:09;;;;;;;14.20;6.80;;;;;;;16.46;79.18;98275.28;106965;1272;24240;-88
2023/05/21 05:23:37;;;;;;;11.10;6.30;;;;;;;16.56;78.87;98275.83;106970;1275;22789;-85
2023/05/21 05:26:07;;;;;;;9.80;6.60;;;;;;;16.61;78.37;98277.76;107056;1275;25272;-88
2023/05/21 05:28:35;;;;;;;9.40;6.40;;;;;;;16.67;78.29;98280.25;106905;1275;23463;-85
2023/05/21 05:31:03;;;;;;;11.20;7.10;;;;;;;16.72;78.14;98280.06;106685;1275;22787;-85
2023/05/21 05:33:32;;;;;;;12.90;7.30;;;;;;;16.79;77.69;98276.60;106804;1275;22731;-86
2023/05/21 05:36:00;;;;;;;10.20;6.60;;;;;;;16.82;76.81;98274.63;107163;1275;22601;-86
2023/05/21 05:38:28;;;;;;;11.30;7.00;;;;;;;16.86;76.80;98273.35;106915;1254;22511;-86
2023/05/21 05:40:56;;;;;;;9.50;7.00;;;;;;;16.92;77.10;98274.55;107135;1275;24217;-84
2023/05/21 05:43:25;;;;;;;8.30;6.40;;;;;;;16.98;76.58;98268.32;107219;1275;22482;-85
2023/05/21 05:45:55;;;;;;;9.80;6.60;;;;;;;17.05;76.47;98266.07;107186;1275;22628;-86
2023/05/21 05:48:23;;;;;;;7.70;6.80;;;;;;;17.13;76.77;98264.52;107166;1275;22573;-86
2023/05/21 05:50:53;;;;;;;12.10;6.90;;;;;;;17.21;76.34;98266.90;106921;1275;210843;-87
2023/05/21 05:53:22;;;;;;;11.10;6.70;;;;;;;17.32;76.71;98264.73;107156;1275;24226;-85
2023/05/21 05:55:50;;;;;;;8.60;6.30;;;;;;;17.45;76.76;98262.78;107049;1275;22580;-84
2023/05/21 05:58:18;;;;;;;7.30;6.50;;;;;;;17.55;76.78;98266.09;107187;1275;22542;-83
2023/05/21 06:00:53;;;;;;;9.40;6.10;;;;;;;17.65;76.81;98268.48;107099;1275;22525;-82
2023/05/21 06:03:21;;;;;;;12.50;6.70;;;;;;;17.74;76.47;98269.16;107126;1275;22520;-81
2023/05/21 06:05:52;;;;;;;10.50;5.90;;;;;;;17.83;76.39;98265.85;107149;1275;22792;-84
2023/05/21 06:08:22;;;;;;;9.50;6.80;;;;;;;17.92;76.06;98263.35;107075;1272;22521;-84
2023/05/21 06:10:50;;;;;;;8.80;6.70;;;;;;;18.01;75.95;98262.87;107137;1275;22551;-83
2023/05/21 06:13:18;;;;;;;8.40;6.30;;;;;;;18.11;75.97;98267.95;106936;1275;23002;-82
2023/05/21 06:15:46;;;;;;;12.30;6.60;;;;;;;18.20;75.21;98265.27;107018;1275;22524;-85
2023/05/21 06:18:14;;;;;;;8.60;6.70;;;;;;;18.25;74.17;98262.56;106846;1275;24109;-85
2023/05/21 06:20:42;;;;;;;8.60;6.30;;;;;;;18.33;74.94;98265.30;107145;1275;25319;-84
2023/05/21 06:23:11;;;;;;;10.20;6.50;;;;;;;18.44;74.31;98260.34;107074;1275;26630;-85
2023/05/21 06:25:41;;;;;;;9.20;6.50;;;;;;;18.50;73.46;98257.83;107130;1275;22534;-84
2023/05/21 06:28:09;;;;;;;14.20;7.00;;;;;;;18.58;74.05;98255.42;106946;1275;25343;-84
2023/05/21 06:30:38;;;;;;;14.50;6.70;;;;;;;18.70;74.33;98257.06;107239;1275;24229;-83
2023/05/21 06:33:06;;;;;;;10.00;6.40;;;;;;;18.85;73.77;98253.91;106875;1275;24009;-82
2023/05/21 06:35:35;;;;;;;12.30;6.40;;;;;;;18.93;72.85;98256.04;107151;1275;22602;-85
2023/05/21 06:38:04;;;;;;;9.80;6.50;;;;;;;19.00;72.45;98252.59;107096;1275;22579;-83
2023/05/21 06:40:33;;;;;;;8.20;6.40;;;;;;;19.07;72.88;98255.91;107133;1275;22593;-83
2023/05/21 06:43:03;;;;;;;10.20;6.60;;;;;;;19.18;72.56;98250.66;107186;1275;22560;-83
2023/05/21 06:45:50;;;;;;;10.60;6.30;;;;;;;19.29;72.51;98252.41;107135;1275;24587;-84
2023/05/21 06:48:35;;;;;;;12.00;7.10;;;;;;;19.38;72.16;98252.02;107106;1275;22533;-83
2023/05/21 06:51:04;;;;;;;9.40;6.10;;;;;;;19.45;72.57;98248.79;107103;1275;22752;-84
2023/05/21 06:53:32;;;;;;;13.00;6.80;;;;;;;19.52;71.58;98247.02;107091;1275;22576;-85
2023/05/21 06:56:00;;;;;;;7.80;5.70;;;;;;;19.57;71.65;98243.87;107087;1275;22535;-84
2023/05/21 06:58:41;;;;;;;12.60;6.80;;;;;;;19.63;70.80;98246.91;107296;1275;23155;-84
2023/05/21 07:01:10;;;;;;;9.80;5.90;;;;;;;19.67;70.81;98240.35;107246;1275;22521;-84
2023/05/21 07:03:38;;;;;;;12.50;6.70;;;;;;;19.75;71.30;98233.52;107054;1275;22602;-82
2023/05/21 07:06:08;;;;;;;10.20;6.20;;;;;;;19.85;70.40;98232.20;107161;1275;22516;-84
2023/05/21 07:08:36;;;;;;;9.90;6.60;;;;;;;19.89;70.34;98231.21;107198;1275;22547;-84
2023/05/21 07:11:04;;;;;;;13.00;6.00;;;;;;;19.95;70.52;98230.05;106921;1275;23414;-84
2023/05/21 07:13:35;;;;;;;9.20;6.40;;;;;;;20.07;70.83;98232.61;107173;1275;22722;-84
2023/05/21 07:16:03;;;;;;;11.50;6.10;;;;;;;20.19;69.75;98230.71;107085;1275;22545;-86
2023/05/21 07:18:31;;;;;;;8.20;6.20;;;;;;;20.28;69.29;98228.20;106965;1275;23927;-84
2023/05/21 07:20:59;;;;;;;9.70;6.20;;;;;;;20.36;69.33;98225.33;106955;1275;24289;-84
2023/05/21 07:23:28;;;;;;;8.60;6.00;;;;;;;20.48;69.32;98226.70;106845;1275;22524;-85
2023/05/21 07:25:56;;;;;;;10.80;5.60;;;;;;;20.56;68.00;98226.14;106791;1275;22647;-86
2023/05/21 07:28:24;;;;;;;10.20;6.00;;;;;;;20.60;67.42;98223.41;107090;1275;22534;-85
2023/05/21 07:30:52;;;;;;;10.60;6.20;;;;;;;20.63;66.88;98219.17;106822;1275;22551;-85
2023/05/21 07:33:25;;;;;;;7.90;5.20;;;;;;;20.68;66.93;98222.88;106940;1275;22518;-82
2023/05/21 07:35:54;;;;;;;10.20;5.90;;;;;;;20.76;66.82;98222.98;107211;1275;24198;-84
2023/05/21 07:38:22;;;;;;;7.50;4.60;;;;;;;20.87;67.21;98223.77;107121;1275;24748;-84
2023/05/21 07:40:50;;;;;;;7.00;4.60;;;;;;;21.02;66.92;98227.37;106692;1275;22810;-84
2023/05/21 07:43:18;;;;;;;12.10;5.10;;;;;;;21.14;65.86;98226.76;106911;1275;22772;-82
2023/05/21 07:45:46;;;;;;;8.10;5.00;;;;;;;21.28;65.79;98226.70;107446;1275;26163;-83
2023/05/21 07:48:14;;;;;;;10.70;5.10;;;;;;;21.40;64.70;98222.66;106975;1275;22536;-86
2023/05/21 07:50:51;;;;;;;10.60;4.30;;;;;;;21.48;63.77;98220.46;106870;1275;22847;-86
2023/05/21 07:53:20;;;;;;;12.40;5.10;;;;;;;21.59;62.96;98224.04;107158;1275;22586;-87
2023/05/21 07:55:49;;;;;;;9.90;4.50;;;;;;;21.66;62.77;98224.33;108176;1275;22635;-85
2023/05/21 07:58:22;;;;;;;10.20;5.30;;;;;;;21.74;62.51;98224.77;107059;1272;23148;-81
2023/05/21 08:00:50;;;;;;;11.50;5.30;;;;;;;21.82;62.94;98228.37;106709;1276;25482;-82
2023/05/21 08:03:19;;;;;;;9.90;4.90;;;;;;;21.94;62.08;98227.56;106996;1275;24192;-81
2023/05/21 08:05:48;;;;;;;8.40;4.60;;;;;;;22.03;61.98;98228.35;106928;1275;23035;-81
2023/05/21 08:08:20;;;;;;;10.60;5.40;;;;;;;22.13;61.67;98221.52;107222;1254;24230;-82
2023/05/21 08:10:51;;;;;;;9.20;4.90;;;;;;;22.20;60.76;98224.27;107168;1275;22659;-82
2023/05/21 08:13:21;;;;;;;8.30;4.50;;;;;;;22.26;59.81;98222.23;106983;1275;22648;-82
2023/05/21 08:15:49;;;;;;;8.20;4.40;;;;;;;22.34;60.38;98222.98;106902;1275;22575;-83
2023/05/21 08:18:22;;;;;;;7.30;4.60;;;;;;;22.40;60.36;98225.52;107106;1275;25440;-83
2023/05/21 08:20:51;;;;;;;8.80;4.10;;;;;;;22.46;59.59;98224.89;107314;1275;24251;-83
2023/05/21 08:23:20;;;;;;;9.50;4.70;;;;;;;22.54;58.93;98223.44;107553;1264;22530;-86
2023/05/21 08:25:52;;;;;;;8.90;4.70;;;;;;;22.58;58.54;98225.70;107326;1269;22536;-84
2023/05/21 08:28:22;;;;;;;11.90;5.00;;;;;;;22.64;58.51;98222.96;107304;1275;22634;-87
2023/05/21 08:30:51;;;;;;;8.10;4.10;;;;;;;22.71;58.67;98223.04;106950;1275;25312;-84
2023/05/21 08:33:21;;;;;;;8.00;4.60;;;;;;;22.83;58.31;98221.73;107218;1272;23142;-83
2023/05/21 08:35:50;;;;;;;11.00;4.30;;;;;;;22.91;56.87;98222.55;107155;1275;26580;-84
2023/05/21 08:38:23;;;;;;;10.30;4.50;;;;;;;22.93;56.44;98224.05;106934;1275;23294;-84
2023/05/21 08:40:59;;;;;;;9.80;4.50;;;;;;;22.98;57.14;98223.38;107443;1275;22665;-85
2023/05/21 08:43:30;;;;;;;9.00;3.80;;;;;;;23.01;57.08;98210.45;107495;1275;24224;-85
2023/05/21 08:45:59;;;;;;;9.90;3.90;;;;;;;23.18;55.20;98224.86;107107;1275;22583;-84
2023/05/21 08:48:31;;;;;;;8.30;3.50;;;;;;;23.18;54.50;98221.34;107417;1275;23893;-83
2023/05/21 08:51:00;;;;;;;8.00;3.80;;;;;;;23.24;54.85;98219.83;107191;1275;22459;-84
2023/05/21 08:53:34;;;;;;;9.50;3.90;;;;;;;23.33;53.98;98223.89;107262;1275;22591;-85
2023/05/21 08:56:05;;;;;;;7.50;3.60;;;;;;;23.32;52.80;98223.08;107341;1272;22550;-83
2023/05/21 08:58:54;;;;;;;9.60;4.00;;;;;;;23.33;53.55;98222.69;107314;1275;24198;-84
2023/05/21 09:01:26;;;;;;;6.70;3.40;;;;;;;23.42;52.45;98220.98;107913;1275;23888;-84
2023/05/21 09:04:02;;;;;;;12.70;3.60;;;;;;;23.47;52.87;98219.80;107493;1275;22556;-85
2023/05/21 09:06:49;;;;;;;8.00;3.50;;;;;;;23.63;51.50;98215.14;107057;1275;25214;-85
2023/05/21 09:09:31;;;;;;;5.90;3.20;;;;;;;23.67;50.00;98220.06;107070;1275;22569;-86
2023/05/21 09:12:00;;;;;;;6.30;3.20;;;;;;;23.65;49.27;98218.09;107187;1275;25607;-87
2023/05/21 09:14:29;;;;;;;8.20;4.00;;;;;;;23.63;50.33;98215.39;106896;1275;23029;-82
2023/05/21 09:17:14;;;;;;;7.50;3.30;;;;;;;23.71;49.42;98216.51;107194;1275;24288;-84
2023/05/21 09:20:15;;;;;;;8.30;3.30;;;;;;;23.71;47.79;98211.80;106996;1275;22530;-83
2023/05/21 09:22:54;;;;;;;7.90;3.10;;;;;;;23.71;47.52;98217.31;107028;1276;22525;-84
2023/05/21 09:25:26;;;;;;;5.70;3.00;;;;;;;23.73;46.89;98218.27;106950;1275;22621;-85
2023/05/21 09:27:56;;;;;;;4.60;2.80;;;;;;;23.74;47.44;98216.79;107038;1275;26511;-84
2023/05/21 09:30:24;;;;;;;12.10;3.60;;;;;;;23.81;47.36;98220.39;106882;1275;22649;-84
2023/05/21 09:32:58;;;;;;;7.00;3.40;;;;;;;23.91;47.18;98219.85;107135;1275;25217;-84
2023/05/21 09:35:28;;;;;;;9.10;3.30;;;;;;;23.96;47.78;98219.05;107496;1275;24286;-82
2023/05/21 09:37:56;;;;;;;8.80;3.60;;;;;;;24.05;47.73;98219.43;107328;1275;22520;-82
2023/05/21 09:40:34;;;;;;;6.70;3.20;;;;;;;24.10;45.69;98218.98;107301;1275;25425;-83
2023/05/21 09:43:04;;;;;;;6.10;3.00;;;;;;;24.09;46.45;98220.09;107033;1275;23898;-83
2023/05/21 09:45:32;;;;;;;8.10;2.80;;;;;;;24.12;45.66;98218.39;106995;1275;22521;-83
2023/05/21 09:48:02;;;;;;;16.10;3.70;;;;;;;24.19;46.71;98213.40;106830;1275;24256;-84
2023/05/21 09:50:35;;;;;;;5.70;2.90;;;;;;;24.29;45.40;98218.05;107056;1275;22508;-82
2023/05/21 09:53:11;;;;;;;11.00;3.20;;;;;;;24.27;44.31;98224.10;107127;1275;26694;-83
2023/05/21 09:55:40;;;;;;;8.10;3.20;;;;;;;24.29;44.67;98216.23;107295;1275;22523;-83
2023/05/21 09:58:09;;;;;;;6.70;3.00;;;;;;;24.36;45.33;98210.30;108060;1275;22540;-85
2023/05/21 10:00:38;;;;;;;7.00;3.10;;;;;;;24.50;45.91;98208.06;107888;1275;22781;-87
2023/05/21 10:03:08;;;;;;;7.40;3.40;;;;;;;24.65;44.51;98204.30;107586;1275;22525;-87
2023/05/21 10:05:37;;;;;;;8.30;3.30;;;;;;;24.68;43.34;98202.98;107380;1275;22616;-86
2023/05/21 10:08:08;;;;;;;5.10;3.20;;;;;;;24.70;43.99;98202.14;107793;1275;24215;-86
2023/05/21 10:10:39;;;;;;;8.80;3.70;;;;;;;24.75;43.38;98194.76;108261;1275;23936;-90
2023/05/21 10:13:10;;;;;;;6.60;3.30;;;;;;;24.84;43.66;98196.20;107322;1276;22521;-88
2023/05/21 10:15:44;;;;;;;7.60;3.10;;;;;;;24.85;42.56;98193.14;108071;1276;22520;-89
2023/05/21 10:18:15;;;;;;;5.30;2.70;;;;;;;24.81;42.06;98189.20;109242;1276;22529;-86
2023/05/21 10:20:45;;;;;;;7.60;2.90;;;;;;;24.85;43.57;98189.30;108314;1276;22485;-87
2023/05/21 10:23:13;;;;;;;8.80;3.40;;;;;;;25.06;43.57;98187.27;108559;1275;22527;-87
2023/05/21 10:25:41;;;;;;;4.60;2.80;;;;;;;25.17;43.69;98186.45;108521;1275;22534;-86
2023/05/21 10:28:14;;;;;;;8.40;2.90;;;;;;;25.31;43.03;98188.70;107752;1275;25391;-85
2023/05/21 10:30:43;;;;;;;8.00;3.30;;;;;;;25.35;42.80;98189.74;107380;1275;24215;-84
2023/05/21 10:33:15;;;;;;;5.40;3.10;;;;;;;25.43;43.14;98184.16;107122;1275;24239;-82
2023/05/21 10:35:47;;;;;;;9.10;3.70;;;;;;;25.49;43.23;98189.63;107260;1276;23540;-86
2023/05/21 10:38:18;;;;;;;8.00;3.20;;;;;;;25.60;43.23;98177.50;107343;1275;24193;-84
2023/05/21 10:40:48;;;;;;;6.40;3.40;;;;;;;25.73;43.53;98182.02;107052;1276;23152;-85
2023/05/21 10:43:34;;;;;;;6.40;3.40;;;;;;;25.84;43.42;98184.89;107045;1275;25363;-85
2023/05/21 10:46:22;;;;;;;6.80;3.40;;;;;;;25.89;42.85;98180.08;107306;1275;25421;-87
2023/05/21 10:49:03;;;;;;;4.80;3.10;;;;;;;25.86;42.27;98180.30;107229;1275;22688;-85
2023/05/21 10:52:03;;;;;;;8.70;3.50;;;;;;;25.76;42.08;98179.41;107268;1275;22528;-88
2023/05/21 10:55:05;;;;;;;5.80;3.20;;;;;;;25.66;40.95;98177.05;107061;1275;22544;-86
2023/05/21 10:57:43;;;;;;;4.10;3.00;;;;;;;25.61;41.74;98181.85;107374;1275;23303;-87
2023/05/21 11:00:15;;;;;;;6.80;3.00;;;;;;;25.69;41.07;98181.06;107186;1275;22479;-85
2023/05/21 11:02:44;;;;;;;8.90;3.30;;;;;;;25.75;41.11;98175.16;107148;1262;24218;-86
2023/05/21 11:05:13;;;;;;;7.40;3.30;;;;;;;25.78;41.08;98178.70;107118;1275;22536;-86
2023/05/21 11:07:52;;;;;;;9.10;3.20;;;;;;;25.73;40.72;98173.98;106998;1275;22572;-84
2023/05/21 11:10:40;;;;;;;7.70;3.30;;;;;;;25.71;41.47;98172.08;106895;1276;24036;-84
2023/05/21 11:13:23;;;;;;;5.80;3.50;;;;;;;25.79;40.81;98172.80;106961;1275;24352;-85
2023/05/21 11:16:04;;;;;;;8.00;3.00;;;;;;;25.75;40.46;98166.09;107144;1275;22483;-87
2023/05/21 11:18:35;;;;;;;7.00;3.50;;;;;;;25.70;40.28;98169.09;107496;1275;22644;-85
2023/05/21 11:21:12;;;;;;;7.70;3.40;;;;;;;25.56;40.34;98172.61;106900;1275;25654;-85
2023/05/21 11:23:48;;;;;;;7.50;2.80;;;;;;;25.58;41.16;98177.81;106873;1276;22531;-84
2023/05/21 11:26:25;;;;;;;5.70;3.10;;;;;;;25.69;40.70;98173.96;106992;1275;23906;-84
2023/05/21 11:29:02;;;;;;;6.30;3.10;;;;;;;25.72;40.81;98167.90;107001;1275;22531;-83
2023/05/21 11:31:38;;;;;;;5.30;2.90;;;;;;;25.86;41.04;98168.88;107142;1275;25407;-85
2023/05/21 11:34:27;;;;;;;5.20;2.90;;;;;;;25.97;40.20;98169.13;106991;1275;25405;-84
2023/05/21 11:37:23;;;;;;;5.00;3.10;;;;;;;26.09;39.61;98162.96;107200;1275;25458;-90